Arnsberg, Germany

2:15 PM CEST on October 01, 2014 (GMT +0200)
INORDRHE108 | Change Station
CLOSE
Current Station
Personal Weather Station
Location: Neheim, NORDRHEIN-WESTFALEN
Elevation: 728 ft
Nearby Weather Stations

Elev 728 ft 51.45 °N, 7.99 °E | Updated 25 seconds ago

Partly Cloudy
Partly Cloudy
65.8 °F
Feels Like 65.8 °F
N
-
Wind Variable Wind from North

Today
High -- | Low -- °F
--% Chance of Precip.
Yesterday
High -- | Low -- °F
Precip. -- in
7:28 AM 7:06 PM
Waxing Crescent, 47% visible
Pressure 30.33 in
Visibility 6.2 miles
Clouds Few 3000 ft
Dew Point 55 °F
Humidity 69%
Rainfall 0.00 in
Snow Depth Not available.
UV 4 out of 12
Pollen Not available.
Air Quality Not available.
Flu Activity Not available.
METAR EDLW 011150Z 25009KT 220V290 9999 FEW030 20/12 Q1027 RMK ATIS R

More Conditions Fewer Conditions

Pressure 30.33 in
Visibility 6.2 miles
Clouds Few 3000 ft
Dew Point 55 °F
Humidity 69%
Rainfall 0.00 in
Snow Depth Not available.
UV 4 out of 12
Pollen Not available.
Air Quality Not available.
Flu Activity Not available.
METAR EDLW 011150Z 25009KT 220V290 9999 FEW030 20/12 Q1027 RMK ATIS R

More Conditions Fewer Conditions

10-Day Weather Forecast

Almanac

Astronomy

Oct. 01, 2014 Rise Set
Actual Time 7:28 AM CEST 7:06 PM CEST
Civil Twilight 6:55 AM CEST 7:39 PM CEST
Nautical Twilight 6:16 AM CEST 8:18 PM CEST
Astronomical Twilight 5:36 AM CEST 8:58 PM CEST
Moon 2:46 PM CEST 11:51 PM CEST
Length of Visible Light 12h 44m
Length of Day
11h 37m
Tomorrow will be 3m 54s shorter.
Waxing Crescent, 47% of the Moon is Illuminated
Today
Waxing Crescent
Oct 1
First Quarter
Oct 8
Full
Oct 15
Last Quarter
Oct 23
New

Yesterday's Extremes

Country Highs Country Lows

Community

WunderPhotos

Upload Photos

1,757,914 photos uploaded!

WunderBlogs® & News

Nearby

Snow Depth

Not available.

Earthquake Activity

City Distance Mag. Time & Date
No recent earthquake activity has been reported nearby.
Minimum magnitude displayed is 2.5.

Coastal Water Temperatures

Place Temperature
No Stations Reporting

Nearby Weather Stations